Terminal Aerodrome Forecast
Issued by NWS

Home | Current Version | Previous Version | Text Only | Print | Product List | Glossary On
Versions: 1 2 3 4 5 6 7 8 9 10 11 12 13 14 15 16 17 18 19 20 21 22 23 24 25
000
FTUS41 KPHI 271125
TAFPNE
TAF
KPNE 271125Z 2712/2812 34010KT P6SM SCT015 BKN080
      TEMPO 2712/2714 -RA OVC015
     FM271400 33010G18KT P6SM BKN045
     FM280000 34010KT P6SM SCT045 BKN100=

USA.gov is the U.S. government's official web portal to all federal, state and local government web resources and services.